sensor_id;sensor_type;location;lat;lon;timestamp;pressure;altitude;pressure_sealevel;temperature;humidity
20955;BME280;10636;19.390;-99.256;2023-02-11T00:01:24;77802.88;;;24.39;32.91
20955;BME280;10636;19.390;-99.256;2023-02-11T00:03:53;77803.50;;;24.37;32.65
20955;BME280;10636;19.390;-99.256;2023-02-11T00:06:23;77802.81;;;24.37;32.91
20955;BME280;10636;19.390;-99.256;2023-02-11T00:08:52;77797.47;;;24.37;32.98
20955;BME280;10636;19.390;-99.256;2023-02-11T00:11:21;77801.41;;;24.36;33.27
20955;BME280;10636;19.390;-99.256;2023-02-11T00:13:50;77806.78;;;24.36;33.74
20955;BME280;10636;19.390;-99.256;2023-02-11T00:16:21;77812.13;;;24.36;33.05
20955;BME280;10636;19.390;-99.256;2023-02-11T00:18:50;77802.69;;;24.35;33.73
20955;BME280;10636;19.390;-99.256;2023-02-11T00:21:22;77811.38;;;24.33;33.74
20955;BME280;10636;19.390;-99.256;2023-02-11T00:23:52;77812.66;;;24.32;33.33
20955;BME280;10636;19.390;-99.256;2023-02-11T00:26:24;77819.25;;;24.29;33.51
20955;BME280;10636;19.390;-99.256;2023-02-11T00:28:53;77817.19;;;24.27;33.79
20955;BME280;10636;19.390;-99.256;2023-02-11T00:31:25;77817.03;;;24.23;34.23
20955;BME280;10636;19.390;-99.256;2023-02-11T00:33:53;77818.56;;;24.29;34.35
20955;BME280;10636;19.390;-99.256;2023-02-11T00:36:23;77830.53;;;24.25;33.86
20955;BME280;10636;19.390;-99.256;2023-02-11T00:38:53;77833.09;;;24.23;33.81
20955;BME280;10636;19.390;-99.256;2023-02-11T00:41:23;77837.25;;;24.26;34.01
20955;BME280;10636;19.390;-99.256;2023-02-11T00:43:52;77840.00;;;24.29;34.66
20955;BME280;10636;19.390;-99.256;2023-02-11T00:46:20;77837.25;;;24.26;34.13
20955;BME280;10636;19.390;-99.256;2023-02-11T00:48:51;77858.00;;;24.26;34.41
20955;BME280;10636;19.390;-99.256;2023-02-11T00:51:23;77853.25;;;24.24;34.18
20955;BME280;10636;19.390;-99.256;2023-02-11T00:53:51;77862.69;;;24.25;34.52
20955;BME280;10636;19.390;-99.256;2023-02-11T00:56:20;77867.94;;;24.23;34.72
20955;BME280;10636;19.390;-99.256;2023-02-11T00:58:48;77884.03;;;24.23;34.66
20955;BME280;10636;19.390;-99.256;2023-02-11T01:01:17;77881.28;;;24.21;34.88
20955;BME280;10636;19.390;-99.256;2023-02-11T01:03:46;77891.31;;;24.21;34.75
20955;BME280;10636;19.390;-99.256;2023-02-11T01:06:16;77887.94;;;24.20;34.50
20955;BME280;10636;19.390;-99.256;2023-02-11T01:08:44;77891.91;;;24.19;34.34
20955;BME280;10636;19.390;-99.256;2023-02-11T01:11:15;77901.94;;;24.19;34.92
20955;BME280;10636;19.390;-99.256;2023-02-11T01:13:45;77902.56;;;24.17;34.37
20955;BME280;10636;19.390;-99.256;2023-02-11T01:16:14;77906.59;;;24.18;34.35
20955;BME280;10636;19.390;-99.256;2023-02-11T01:18:42;77911.22;;;24.16;34.92
20955;BME280;10636;19.390;-99.256;2023-02-11T01:21:11;77911.22;;;24.16;35.11
20955;BME280;10636;19.390;-99.256;2023-02-11T01:23:41;77913.19;;;24.15;34.80
20955;BME280;10636;19.390;-99.256;2023-02-11T01:26:10;77918.56;;;24.15;35.02
20955;BME280;10636;19.390;-99.256;2023-02-11T01:28:39;77932.63;;;24.16;34.80
20955;BME280;10636;19.390;-99.256;2023-02-11T01:31:07;77934.63;;;24.15;35.02
20955;BME280;10636;19.390;-99.256;2023-02-11T01:33:36;77939.28;;;24.15;34.42
20955;BME280;10636;19.390;-99.256;2023-02-11T01:36:05;77945.34;;;24.15;34.68
20955;BME280;10636;19.390;-99.256;2023-02-11T01:38:34;77946.72;;;24.16;35.18
20955;BME280;10636;19.390;-99.256;2023-02-11T01:41:07;77945.34;;;24.15;34.71
20955;BME280;10636;19.390;-99.256;2023-02-11T01:43:39;77948.03;;;24.15;34.98
20955;BME280;10636;19.390;-99.256;2023-02-11T01:46:23;77956.06;;;24.15;35.86
20955;BME280;10636;19.390;-99.256;2023-02-11T01:48:56;77972.16;;;24.15;36.15
20955;BME280;10636;19.390;-99.256;2023-02-11T01:51:29;77971.97;;;24.11;35.44
20955;BME280;10636;19.390;-99.256;2023-02-11T01:54:01;77987.38;;;24.11;35.64
20955;BME280;10636;19.390;-99.256;2023-02-11T01:56:51;77989.25;;;24.08;36.41
20955;BME280;10636;19.390;-99.256;2023-02-11T01:59:42;77993.25;;;24.07;36.30
20955;BME280;10636;19.390;-99.256;2023-02-11T02:02:14;77999.97;;;24.08;35.63
20955;BME280;10636;19.390;-99.256;2023-02-11T02:04:48;77999.97;;;24.08;35.73
20955;BME280;10636;19.390;-99.256;2023-02-11T02:07:27;77990.50;;;24.05;36.07
20955;BME280;10636;19.390;-99.256;2023-02-11T02:10:02;77999.28;;;24.08;36.50
20955;BME280;10636;19.390;-99.256;2023-02-11T02:12:33;78006.56;;;24.05;36.15
20955;BME280;10636;19.390;-99.256;2023-02-11T02:15:29;78009.84;;;24.04;36.08
20955;BME280;10636;19.390;-99.256;2023-02-11T02:18:19;78011.81;;;24.03;36.82
20955;BME280;10636;19.390;-99.256;2023-02-11T02:21:20;78017.78;;;24.02;36.77
20955;BME280;10636;19.390;-99.256;2023-02-11T02:24:21;78019.84;;;24.03;36.29
20955;BME280;10636;19.390;-99.256;2023-02-11T02:36:07;78040.34;;;23.96;37.28
20955;BME280;10636;19.390;-99.256;2023-02-11T02:38:39;78046.31;;;23.95;36.80
20955;BME280;10636;19.390;-99.256;2023-02-11T02:41:13;78046.31;;;23.95;37.21
20955;BME280;10636;19.390;-99.256;2023-02-11T02:43:47;78053.06;;;23.96;37.76
20955;BME280;10636;19.390;-99.256;2023-02-11T02:46:18;78040.78;;;23.91;37.36
20955;BME280;10636;19.390;-99.256;2023-02-11T02:48:49;78047.53;;;23.92;37.41
20955;BME280;10636;19.390;-99.256;2023-02-11T02:51:37;78052.19;;;23.91;37.65
20955;BME280;10636;19.390;-99.256;2023-02-11T02:54:33;78054.25;;;23.93;37.15
20955;BME280;10636;19.390;-99.256;2023-02-11T02:57:13;78061.03;;;23.94;37.46
20955;BME280;10636;19.390;-99.256;2023-02-11T02:59:56;78074.41;;;23.94;37.23
20955;BME280;10636;19.390;-99.256;2023-02-11T03:02:33;78071.63;;;23.92;37.35
20955;BME280;10636;19.390;-99.256;2023-02-11T03:05:09;78071.38;;;23.86;37.41
20955;BME280;10636;19.390;-99.256;2023-02-11T03:07:42;78079.50;;;23.88;36.99
20955;BME280;10636;19.390;-99.256;2023-02-11T03:10:16;78072.75;;;23.87;36.91
20955;BME280;10636;19.390;-99.256;2023-02-11T03:12:47;78078.72;;;23.85;37.67
20955;BME280;10636;19.390;-99.256;2023-02-11T03:15:17;78075.19;;;23.81;37.54
20955;BME280;10636;19.390;-99.256;2023-02-11T03:17:49;78089.94;;;23.82;37.09
20955;BME280;10636;19.390;-99.256;2023-02-11T03:20:22;78097.91;;;23.80;37.68
20955;BME280;10636;19.390;-99.256;2023-02-11T03:22:55;78099.19;;;23.79;37.84
20955;BME280;10636;19.390;-99.256;2023-02-11T03:25:28;78101.88;;;23.79;37.08
20955;BME280;10636;19.390;-99.256;2023-02-11T03:28:02;78108.50;;;23.78;37.27
20955;BME280;10636;19.390;-99.256;2023-02-11T03:30:35;78105.75;;;23.76;37.26
20955;BME280;10636;19.390;-99.256;2023-02-11T03:33:10;78114.41;;;23.74;37.22
20955;BME280;10636;19.390;-99.256;2023-02-11T03:35:46;78118.97;;;23.71;37.67
20955;BME280;10636;19.390;-99.256;2023-02-11T03:38:20;78110.66;;;23.65;37.25
20955;BME280;10636;19.390;-99.256;2023-02-11T03:40:51;78118.88;;;23.69;37.40
20955;BME280;10636;19.390;-99.256;2023-02-11T03:43:23;78123.97;;;23.63;37.35
20955;BME280;10636;19.390;-99.256;2023-02-11T03:45:54;78130.72;;;23.64;37.33
20955;BME280;10636;19.390;-99.256;2023-02-11T03:48:26;78117.94;;;23.63;37.05
20955;BME280;10636;19.390;-99.256;2023-02-11T03:51:00;78119.19;;;23.62;37.04
20955;BME280;10636;19.390;-99.256;2023-02-11T03:53:32;78130.50;;;23.60;36.79
20955;BME280;10636;19.390;-99.256;2023-02-11T03:56:05;78134.47;;;23.59;36.55
20955;BME280;10636;19.390;-99.256;2023-02-11T03:58:34;78129.72;;;23.58;36.78
20955;BME280;10636;19.390;-99.256;2023-02-11T04:01:03;78134.19;;;23.53;36.90
20955;BME280;10636;19.390;-99.256;2023-02-11T04:03:34;78140.94;;;23.54;37.21
20955;BME280;10636;19.390;-99.256;2023-02-11T04:06:04;78133.69;;;23.57;36.90
20955;BME280;10636;19.390;-99.256;2023-02-11T04:08:33;78141.63;;;23.55;37.08
20955;BME280;10636;19.390;-99.256;2023-02-11T04:11:02;78131.59;;;23.55;36.88
20955;BME280;10636;19.390;-99.256;2023-02-11T04:13:30;78127.47;;;23.52;36.69
20955;BME280;10636;19.390;-99.256;2023-02-11T04:15:59;78129.53;;;23.54;36.86
20955;BME280;10636;19.390;-99.256;2023-02-11T04:18:27;78127.47;;;23.52;36.56
20955;BME280;10636;19.390;-99.256;2023-02-11T04:20:56;78128.06;;;23.51;37.27
20955;BME280;10636;19.390;-99.256;2023-02-11T04:23:26;78133.41;;;23.51;36.80
20955;BME280;10636;19.390;-99.256;2023-02-11T04:25:55;78129.28;;;23.47;36.41
20955;BME280;10636;19.390;-99.256;2023-02-11T04:28:23;78140.56;;;23.46;36.58
20955;BME280;10636;19.390;-99.256;2023-02-11T04:30:55;78145.16;;;23.43;36.79
20955;BME280;10636;19.390;-99.256;2023-02-11T04:33:23;78152.56;;;23.45;36.85
20955;BME280;10636;19.390;-99.256;2023-02-11T04:35:52;78158.53;;;23.43;36.99
20955;BME280;10636;19.390;-99.256;2023-02-11T04:38:21;78134.31;;;23.26;36.46
20955;BME280;10636;19.390;-99.256;2023-02-11T04:40:51;78157.47;;;23.35;36.72
20955;BME280;10636;19.390;-99.256;2023-02-11T04:43:20;78139.66;;;23.26;36.64
20955;BME280;10636;19.390;-99.256;2023-02-11T04:45:49;78157.72;;;23.41;37.00
20955;BME280;10636;19.390;-99.256;2023-02-11T04:48:17;78155.06;;;23.41;36.62
20955;BME280;10636;19.390;-99.256;2023-02-11T04:50:46;78157.03;;;23.40;36.69
20955;BME280;10636;19.390;-99.256;2023-02-11T04:53:14;78166.28;;;23.37;36.33
20955;BME280;10636;19.390;-99.256;2023-02-11T04:55:43;78163.50;;;23.35;36.38
20955;BME280;10636;19.390;-99.256;2023-02-11T04:58:13;78166.97;;;23.38;37.10
20955;BME280;10636;19.390;-99.256;2023-02-11T05:00:42;78154.69;;;23.33;36.33
20955;BME280;10636;19.390;-99.256;2023-02-11T05:03:11;78162.31;;;23.38;36.95
20955;BME280;10636;19.390;-99.256;2023-02-11T05:05:40;78172.81;;;23.34;36.70
20955;BME280;10636;19.390;-99.256;2023-02-11T05:08:09;78170.66;;;23.31;36.58
20955;BME280;10636;19.390;-99.256;2023-02-11T05:10:38;78171.84;;;23.28;37.09
20955;BME280;10636;19.390;-99.256;2023-02-11T05:13:07;78172.53;;;23.28;36.21
20955;BME280;10636;19.390;-99.256;2023-02-11T05:15:37;78171.94;;;23.30;36.54
20955;BME280;10636;19.390;-99.256;2023-02-11T05:18:05;78171.84;;;23.28;36.88
20955;BME280;10636;19.390;-99.256;2023-02-11T05:20:36;78173.16;;;23.27;37.12
20955;BME280;10636;19.390;-99.256;2023-02-11T05:23:05;78165.03;;;23.25;37.14
20955;BME280;10636;19.390;-99.256;2023-02-11T05:25:33;78170.38;;;23.25;36.63
20955;BME280;10636;19.390;-99.256;2023-02-11T05:28:03;78175.13;;;23.26;36.99
20955;BME280;10636;19.390;-99.256;2023-02-11T05:30:32;78166.31;;;23.23;36.81
20955;BME280;10636;19.390;-99.256;2023-02-11T05:33:02;78160.88;;;23.21;36.29
20955;BME280;10636;19.390;-99.256;2023-02-11T05:35:31;78166.31;;;23.23;36.54
20955;BME280;10636;19.390;-99.256;2023-02-11T05:37:59;78167.59;;;23.22;36.56
20955;BME280;10636;19.390;-99.256;2023-02-11T05:40:28;78170.19;;;23.20;36.59
20955;BME280;10636;19.390;-99.256;2023-02-11T05:42:56;78169.47;;;23.20;36.56
20955;BME280;10636;19.390;-99.256;2023-02-11T05:45:25;78170.91;;;23.21;36.97
20955;BME280;10636;19.390;-99.256;2023-02-11T05:47:53;78172.78;;;23.18;36.92
20955;BME280;10636;19.390;-99.256;2023-02-11T05:50:26;78167.41;;;23.18;36.19
20955;BME280;10636;19.390;-99.256;2023-02-11T05:52:55;78167.41;;;23.18;36.90
20955;BME280;10636;19.390;-99.256;2023-02-11T05:55:23;78169.41;;;23.18;36.30
20955;BME280;10636;19.390;-99.256;2023-02-11T05:57:52;78172.78;;;23.18;36.75
20955;BME280;10636;19.390;-99.256;2023-02-11T06:00:21;78166.03;;;23.17;36.67
20955;BME280;10636;19.390;-99.256;2023-02-11T06:02:49;78170.69;;;23.17;36.63
20955;BME280;10636;19.390;-99.256;2023-02-11T06:05:18;78168.63;;;23.15;36.06
20955;BME280;10636;19.390;-99.256;2023-02-11T06:07:48;78166.53;;;23.14;36.53
20955;BME280;10636;19.390;-99.256;2023-02-11T06:10:18;78172.56;;;23.14;35.94
20955;BME280;10636;19.390;-99.256;2023-02-11T06:12:47;78168.53;;;23.13;36.64
20955;BME280;10636;19.390;-99.256;2023-02-11T06:15:15;78166.44;;;23.12;36.65
20955;BME280;10636;19.390;-99.256;2023-02-11T06:17:44;78167.75;;;23.11;36.62
20955;BME280;10636;19.390;-99.256;2023-02-11T06:20:12;78164.28;;;23.08;36.56
20955;BME280;10636;19.390;-99.256;2023-02-11T06:22:41;78161.59;;;23.08;36.27
20955;BME280;10636;19.390;-99.256;2023-02-11T06:25:11;78165.66;;;23.09;35.80
20955;BME280;10636;19.390;-99.256;2023-02-11T06:27:40;78167.63;;;23.09;35.83
20955;BME280;10636;19.390;-99.256;2023-02-11T06:30:10;78160.63;;;23.02;36.38
20955;BME280;10636;19.390;-99.256;2023-02-11T06:32:38;78170.13;;;23.05;36.42
20955;BME280;10636;19.390;-99.256;2023-02-11T06:35:07;78167.47;;;23.05;35.74
20955;BME280;10636;19.390;-99.256;2023-02-11T06:37:36;78172.09;;;23.04;36.36
20955;BME280;10636;19.390;-99.256;2023-02-11T06:40:05;78169.44;;;23.04;36.55
20955;BME280;10636;19.390;-99.256;2023-02-11T06:42:35;78162.69;;;23.03;36.59
20955;BME280;10636;19.390;-99.256;2023-02-11T06:45:05;78162.69;;;23.03;36.18
20955;BME280;10636;19.390;-99.256;2023-02-11T06:47:34;78164.06;;;23.04;35.83
20955;BME280;10636;19.390;-99.256;2023-02-11T06:50:04;78153.97;;;23.03;35.91
20955;BME280;10636;19.390;-99.256;2023-02-11T06:52:33;78152.00;;;23.03;36.44
20955;BME280;10636;19.390;-99.256;2023-02-11T06:55:01;78151.22;;;23.01;36.52
20955;BME280;10636;19.390;-99.256;2023-02-11T06:57:30;78153.22;;;23.00;35.70
20955;BME280;10636;19.390;-99.256;2023-02-11T07:00:01;78141.13;;;22.99;36.16
20955;BME280;10636;19.390;-99.256;2023-02-11T07:02:29;78137.72;;;22.99;35.97
20955;BME280;10636;19.390;-99.256;2023-02-11T07:04:58;78147.75;;;22.98;36.02
20955;BME280;10636;19.390;-99.256;2023-02-11T07:07:27;78138.34;;;22.97;36.21
20955;BME280;10636;19.390;-99.256;2023-02-11T07:09:57;78149.66;;;22.95;35.74
20955;BME280;10636;19.390;-99.256;2023-02-11T07:12:26;78143.81;;;22.99;36.30
20955;BME280;10636;19.390;-99.256;2023-02-11T07:14:57;78145.06;;;22.98;35.56
20955;BME280;10636;19.390;-99.256;2023-02-11T07:17:27;78149.03;;;22.97;36.20
20955;BME280;10636;19.390;-99.256;2023-02-11T07:19:55;78139.63;;;22.96;36.24
20955;BME280;10636;19.390;-99.256;2023-02-11T07:22:24;78136.28;;;22.95;35.98
20955;BME280;10636;19.390;-99.256;2023-02-11T07:24:53;78141.63;;;22.95;36.41
20955;BME280;10636;19.390;-99.256;2023-02-11T07:27:21;78140.13;;;22.92;36.30
20955;BME280;10636;19.390;-99.256;2023-02-11T07:29:50;78142.22;;;22.94;35.55
20955;BME280;10636;19.390;-99.256;2023-02-11T07:32:18;78132.63;;;22.89;35.53
20955;BME280;10636;19.390;-99.256;2023-02-11T07:34:48;78139.56;;;22.94;36.34
20955;BME280;10636;19.390;-99.256;2023-02-11T07:37:17;78132.09;;;22.92;35.75
20955;BME280;10636;19.390;-99.256;2023-02-11T07:39:46;78141.44;;;22.91;36.49
20955;BME280;10636;19.390;-99.256;2023-02-11T07:42:14;78136.78;;;22.92;35.67
20955;BME280;10636;19.390;-99.256;2023-02-11T07:44:43;78130.03;;;22.91;36.17
20955;BME280;10636;19.390;-99.256;2023-02-11T07:47:11;78130.66;;;22.89;36.36
20955;BME280;10636;19.390;-99.256;2023-02-11T07:49:40;78127.16;;;22.87;36.49
20955;BME280;10636;19.390;-99.256;2023-02-11T07:52:10;78125.88;;;22.88;36.49
20955;BME280;10636;19.390;-99.256;2023-02-11T07:54:39;78123.88;;;22.88;36.36
20955;BME280;10636;19.390;-99.256;2023-02-11T07:57:07;78120.53;;;22.88;35.99
20955;BME280;10636;19.390;-99.256;2023-02-11T07:59:36;78133.91;;;22.88;36.43
20955;BME280;10636;19.390;-99.256;2023-02-11T08:02:05;78129.81;;;22.87;36.52
20955;BME280;10636;19.390;-99.256;2023-02-11T08:04:33;78128.56;;;22.88;36.35
20955;BME280;10636;19.390;-99.256;2023-02-11T08:07:02;78125.75;;;22.86;35.84
20955;BME280;10636;19.390;-99.256;2023-02-11T08:09:34;78116.38;;;22.85;36.43
20955;BME280;10636;19.390;-99.256;2023-02-11T08:12:04;78114.28;;;22.83;35.74
20955;BME280;10636;19.390;-99.256;2023-02-11T08:14:33;78114.28;;;22.83;36.47
20955;BME280;10636;19.390;-99.256;2023-02-11T08:17:02;78112.88;;;22.82;36.45
20955;BME280;10636;19.390;-99.256;2023-02-11T08:19:30;78112.19;;;22.82;35.87
20955;BME280;10636;19.390;-99.256;2023-02-11T08:21:59;78116.84;;;22.81;36.05
20955;BME280;10636;19.390;-99.256;2023-02-11T08:24:27;78114.78;;;22.80;35.72
20955;BME280;10636;19.390;-99.256;2023-02-11T08:26:57;78114.78;;;22.80;36.30
20955;BME280;10636;19.390;-99.256;2023-02-11T08:29:26;78103.41;;;22.79;36.61
20955;BME280;10636;19.390;-99.256;2023-02-11T08:31:55;78098.75;;;22.80;35.87
20955;BME280;10636;19.390;-99.256;2023-02-11T08:34:23;78104.09;;;22.80;36.38
20955;BME280;10636;19.390;-99.256;2023-02-11T08:36:52;78098.75;;;22.80;36.46
20955;BME280;10636;19.390;-99.256;2023-02-11T08:39:21;78092.59;;;22.77;35.98
20955;BME280;10636;19.390;-99.256;2023-02-11T08:41:52;78080.94;;;22.70;35.79
20955;BME280;10636;19.390;-99.256;2023-02-11T08:44:23;78095.97;;;22.78;36.60
20955;BME280;10636;19.390;-99.256;2023-02-11T08:46:52;78084.56;;;22.77;35.74
20955;BME280;10636;19.390;-99.256;2023-02-11T08:49:21;78073.19;;;22.77;36.51
20955;BME280;10636;19.390;-99.256;2023-02-11T08:51:49;78077.16;;;22.76;35.87
20955;BME280;10636;19.390;-99.256;2023-02-11T08:54:19;78071.72;;;22.74;36.15
20955;BME280;10636;19.390;-99.256;2023-02-11T08:56:50;78079.75;;;22.74;36.13
20955;BME280;10636;19.390;-99.256;2023-02-11T08:59:19;78073.00;;;22.73;35.93
20955;BME280;10636;19.390;-99.256;2023-02-11T09:01:49;78068.94;;;22.71;36.38
20955;BME280;10636;19.390;-99.256;2023-02-11T09:04:17;78066.28;;;22.71;35.73
20955;BME280;10636;19.390;-99.256;2023-02-11T09:06:46;78065.59;;;22.71;36.70
20955;BME280;10636;19.390;-99.256;2023-02-11T09:09:15;78075.59;;;22.70;35.77
20955;BME280;10636;19.390;-99.256;2023-02-11T09:11:45;78073.00;;;22.73;36.42
20955;BME280;10636;19.390;-99.256;2023-02-11T09:14:18;78064.91;;;22.70;36.22
20955;BME280;10636;19.390;-99.256;2023-02-11T09:16:49;78066.88;;;22.70;36.78
20955;BME280;10636;19.390;-99.256;2023-02-11T09:19:19;78068.88;;;22.69;36.47
20955;BME280;10636;19.390;-99.256;2023-02-11T09:21:48;78065.38;;;22.67;36.31
20955;BME280;10636;19.390;-99.256;2023-02-11T09:24:17;78068.66;;;22.65;36.25
20955;BME280;10636;19.390;-99.256;2023-02-11T09:26:45;78070.06;;;22.66;36.38
20955;BME280;10636;19.390;-99.256;2023-02-11T09:29:14;78065.31;;;22.65;36.36
20955;BME280;10636;19.390;-99.256;2023-02-11T09:31:43;78075.31;;;22.64;36.07
20955;BME280;10636;19.390;-99.256;2023-02-11T09:34:13;78088.69;;;22.64;36.03
20955;BME280;10636;19.390;-99.256;2023-02-11T09:36:42;78081.94;;;22.63;36.99
20955;BME280;10636;19.390;-99.256;2023-02-11T09:39:13;78075.91;;;22.63;36.29
20955;BME280;10636;19.390;-99.256;2023-02-11T09:44:36;78079.16;;;22.61;36.31
20955;BME280;10636;19.390;-99.256;2023-02-11T09:47:11;78079.16;;;22.61;36.89
20955;BME280;10636;19.390;-99.256;2023-02-11T09:49:47;78078.41;;;22.59;36.42
20955;BME280;10636;19.390;-99.256;2023-02-11T09:52:24;78075.13;;;22.60;36.39
20955;BME280;10636;19.390;-99.256;2023-02-11T09:54:58;78066.41;;;22.60;36.03
20955;BME280;10636;19.390;-99.256;2023-02-11T09:57:31;78075.03;;;22.58;36.81
20955;BME280;10636;19.390;-99.256;2023-02-11T10:00:01;78074.34;;;22.58;36.12
20955;BME280;10636;19.390;-99.256;2023-02-11T10:02:35;78074.34;;;22.58;36.46
20955;BME280;10636;19.390;-99.256;2023-02-11T10:05:34;78070.19;;;22.55;36.93
20955;BME280;10636;19.390;-99.256;2023-02-11T10:08:11;78075.53;;;22.55;36.97
20955;BME280;10636;19.390;-99.256;2023-02-11T10:10:49;78074.22;;;22.56;36.80
20955;BME280;10636;19.390;-99.256;2023-02-11T10:13:39;78077.59;;;22.56;36.80
20955;BME280;10636;19.390;-99.256;2023-02-11T10:16:20;78076.91;;;22.56;36.08
20955;BME280;10636;19.390;-99.256;2023-02-11T10:21:52;78080.19;;;22.54;36.37
20955;BME280;10636;19.390;-99.256;2023-02-11T10:24:23;78085.53;;;22.54;36.89
20955;BME280;10636;19.390;-99.256;2023-02-11T10:26:53;78075.31;;;22.51;36.14
20955;BME280;10636;19.390;-99.256;2023-02-11T10:29:32;78086.81;;;22.53;36.92
20955;BME280;10636;19.390;-99.256;2023-02-11T10:32:06;78086.81;;;22.53;36.55
20955;BME280;10636;19.390;-99.256;2023-02-11T10:34:40;78094.84;;;22.53;36.75
20955;BME280;10636;19.390;-99.256;2023-02-11T10:37:12;78085.44;;;22.52;36.83
20955;BME280;10636;19.390;-99.256;2023-02-11T10:39:41;78078.59;;;22.49;36.31
20955;BME280;10636;19.390;-99.256;2023-02-11T10:42:11;78082.66;;;22.50;36.26
20955;BME280;10636;19.390;-99.256;2023-02-11T10:44:46;78078.59;;;22.49;36.06
20955;BME280;10636;19.390;-99.256;2023-02-11T10:47:22;78081.28;;;22.49;36.87
20955;BME280;10636;19.390;-99.256;2023-02-11T10:49:52;78079.91;;;22.48;36.74
20955;BME280;10636;19.390;-99.256;2023-02-11T10:52:24;78081.19;;;22.47;36.46
20955;BME280;10636;19.390;-99.256;2023-02-11T10:55:05;78083.75;;;22.45;36.36
20955;BME280;10636;19.390;-99.256;2023-02-11T10:57:48;78079.69;;;22.44;36.12
20955;BME280;10636;19.390;-99.256;2023-02-11T11:00:30;78085.66;;;22.42;35.93
20955;BME280;10636;19.390;-99.256;2023-02-11T11:03:03;78082.19;;;22.40;35.84
20955;BME280;10636;19.390;-99.256;2023-02-11T11:05:34;78090.19;;;22.40;36.49
20955;BME280;10636;19.390;-99.256;2023-02-11T11:08:06;78088.13;;;22.38;35.93
20955;BME280;10636;19.390;-99.256;2023-02-11T11:10:38;78082.69;;;22.36;36.70
20955;BME280;10636;19.390;-99.256;2023-02-11T11:13:28;78085.94;;;22.35;36.51
20955;BME280;10636;19.390;-99.256;2023-02-11T11:16:10;78084.47;;;22.32;36.40
20955;BME280;10636;19.390;-99.256;2023-02-11T11:18:43;78088.53;;;22.33;36.04
20955;BME280;10636;19.390;-99.256;2023-02-11T11:21:14;78088.53;;;22.33;36.36
20955;BME280;10636;19.390;-99.256;2023-02-11T11:23:50;78089.13;;;22.31;35.74
20955;BME280;10636;19.390;-99.256;2023-02-11T11:26:20;78091.13;;;22.31;36.18
20955;BME280;10636;19.390;-99.256;2023-02-11T11:28:59;78095.16;;;22.32;36.31
20955;BME280;10636;19.390;-99.256;2023-02-11T11:31:32;78081.59;;;22.28;36.44
20955;BME280;10636;19.390;-99.256;2023-02-11T11:34:19;78082.97;;;22.29;35.70
20955;BME280;10636;19.390;-99.256;2023-02-11T11:36:49;78091.00;;;22.29;36.02
20955;BME280;10636;19.390;-99.256;2023-02-11T11:39:21;78096.16;;;22.25;36.37
20955;BME280;10636;19.390;-99.256;2023-02-11T11:41:53;78096.25;;;22.27;36.08
20955;BME280;10636;19.390;-99.256;2023-02-11T11:44:28;78095.56;;;22.26;35.97
20955;BME280;10636;19.390;-99.256;2023-02-11T11:47:21;78097.56;;;22.26;36.34
20955;BME280;10636;19.390;-99.256;2023-02-11T11:52:51;78097.34;;;22.22;36.34
20955;BME280;10636;19.390;-99.256;2023-02-11T11:55:25;78094.69;;;22.22;36.41
20955;BME280;10636;19.390;-99.256;2023-02-11T11:57:54;78098.53;;;22.18;36.00
20955;BME280;10636;19.390;-99.256;2023-02-11T12:00:39;78099.81;;;22.17;36.37
20955;BME280;10636;19.390;-99.256;2023-02-11T12:03:31;78105.16;;;22.17;36.58
20955;BME280;10636;19.390;-99.256;2023-02-11T12:06:16;78100.41;;;22.16;36.27
20955;BME280;10636;19.390;-99.256;2023-02-11T12:08:59;78111.59;;;22.12;36.35
20955;BME280;10636;19.390;-99.256;2023-02-11T12:11:39;78118.22;;;22.11;36.38
20955;BME280;10636;19.390;-99.256;2023-02-11T12:14:18;78111.50;;;22.10;36.09
20955;BME280;10636;19.390;-99.256;2023-02-11T12:16:58;78115.44;;;22.09;36.28
20955;BME280;10636;19.390;-99.256;2023-02-11T12:19:51;78119.38;;;22.08;36.36
20955;BME280;10636;19.390;-99.256;2023-02-11T12:22:33;78112.88;;;22.11;35.67
20955;BME280;10636;19.390;-99.256;2023-02-11T12:25:24;78114.25;;;22.12;36.23
20955;BME280;10636;19.390;-99.256;2023-02-11T12:28:06;78116.13;;;22.10;36.58
20955;BME280;10636;19.390;-99.256;2023-02-11T12:31:01;78116.13;;;22.10;36.67
20955;BME280;10636;19.390;-99.256;2023-02-11T12:36:36;78130.75;;;22.09;36.43
20955;BME280;10636;19.390;-99.256;2023-02-11T12:39:19;78134.03;;;22.07;36.19
20955;BME280;10636;19.390;-99.256;2023-02-11T12:42:03;78128.00;;;22.07;36.62
20955;BME280;10636;19.390;-99.256;2023-02-11T12:45:06;78130.06;;;22.08;36.51
20955;BME280;10636;19.390;-99.256;2023-02-11T12:47:43;78144.94;;;22.11;36.93
20955;BME280;10636;19.390;-99.256;2023-02-11T12:50:21;78137.97;;;22.06;36.54
20955;BME280;10636;19.390;-99.256;2023-02-11T12:53:15;78140.44;;;22.02;36.76
20955;BME280;10636;19.390;-99.256;2023-02-11T12:55:50;78135.00;;;22.00;36.79
20955;BME280;10636;19.390;-99.256;2023-02-11T12:58:24;78144.19;;;21.97;36.99
20955;BME280;10636;19.390;-99.256;2023-02-11T13:01:01;78143.50;;;21.97;36.98
20955;BME280;10636;19.390;-99.256;2023-02-11T13:03:36;78149.44;;;21.95;37.31
20955;BME280;10636;19.390;-99.256;2023-02-11T13:06:10;78150.63;;;21.92;36.50
20955;BME280;10636;19.390;-99.256;2023-02-11T13:08:44;78153.19;;;21.90;37.19
20955;BME280;10636;19.390;-99.256;2023-02-11T13:11:16;78153.91;;;21.90;37.26
20955;BME280;10636;19.390;-99.256;2023-02-11T13:13:50;78142.53;;;21.90;36.73
20955;BME280;10636;19.390;-99.256;2023-02-11T13:16:29;78149.94;;;21.91;37.11
20955;BME280;10636;19.390;-99.256;2023-02-11T13:19:05;78155.97;;;21.92;36.53
20955;BME280;10636;19.390;-99.256;2023-02-11T13:21:55;78161.31;;;21.92;36.72
20955;BME280;10636;19.390;-99.256;2023-02-11T13:24:34;78160.81;;;21.96;36.59
20955;BME280;10636;19.390;-99.256;2023-02-11T13:27:09;78153.41;;;21.94;37.20
20955;BME280;10636;19.390;-99.256;2023-02-11T13:30:00;78156.16;;;21.96;36.75